sensor_id;sensor_type;location;lat;lon;timestamp;P1;durP1;ratioP1;P2;durP2;ratioP2
17488;SDS011;8861;52.644;4.734;2023-04-03T00:01:47;5.73;;;3.13;;
17488;SDS011;8861;52.644;4.734;2023-04-03T00:04:14;3.57;;;2.63;;
17488;SDS011;8861;52.644;4.734;2023-04-03T00:06:42;3.77;;;2.80;;
17488;SDS011;8861;52.644;4.734;2023-04-03T00:09:09;5.27;;;3.40;;
17488;SDS011;8861;52.644;4.734;2023-04-03T00:11:36;6.40;;;3.20;;
17488;SDS011;8861;52.644;4.734;2023-04-03T00:14:03;6.87;;;2.70;;
17488;SDS011;8861;52.644;4.734;2023-04-03T00:16:30;6.30;;;2.70;;
17488;SDS011;8861;52.644;4.734;2023-04-03T00:18:57;4.70;;;3.23;;
17488;SDS011;8861;52.644;4.734;2023-04-03T00:21:24;4.00;;;2.70;;
17488;SDS011;8861;52.644;4.734;2023-04-03T00:23:52;4.87;;;2.87;;
17488;SDS011;8861;52.644;4.734;2023-04-03T00:26:19;3.87;;;2.80;;
17488;SDS011;8861;52.644;4.734;2023-04-03T00:28:46;5.03;;;3.07;;
17488;SDS011;8861;52.644;4.734;2023-04-03T00:31:14;4.20;;;2.90;;
17488;SDS011;8861;52.644;4.734;2023-04-03T00:33:41;3.93;;;2.67;;
17488;SDS011;8861;52.644;4.734;2023-04-03T00:36:09;3.83;;;2.90;;
17488;SDS011;8861;52.644;4.734;2023-04-03T00:38:38;5.17;;;2.90;;
17488;SDS011;8861;52.644;4.734;2023-04-03T00:41:07;3.70;;;2.73;;
17488;SDS011;8861;52.644;4.734;2023-04-03T00:43:34;3.23;;;2.63;;
17488;SDS011;8861;52.644;4.734;2023-04-03T00:46:01;4.77;;;3.00;;
17488;SDS011;8861;52.644;4.734;2023-04-03T00:48:29;4.67;;;2.77;;
17488;SDS011;8861;52.644;4.734;2023-04-03T00:50:58;5.20;;;2.50;;
17488;SDS011;8861;52.644;4.734;2023-04-03T00:53:27;4.00;;;2.73;;
17488;SDS011;8861;52.644;4.734;2023-04-03T00:55:58;3.03;;;2.73;;
17488;SDS011;8861;52.644;4.734;2023-04-03T00:58:31;3.87;;;2.97;;
17488;SDS011;8861;52.644;4.734;2023-04-03T01:01:04;4.07;;;2.80;;
17488;SDS011;8861;52.644;4.734;2023-04-03T01:03:34;4.47;;;2.40;;
17488;SDS011;8861;52.644;4.734;2023-04-03T01:06:01;4.70;;;2.80;;
17488;SDS011;8861;52.644;4.734;2023-04-03T01:08:29;3.77;;;2.70;;
17488;SDS011;8861;52.644;4.734;2023-04-03T01:10:56;4.30;;;2.70;;
17488;SDS011;8861;52.644;4.734;2023-04-03T01:13:24;2.80;;;2.47;;
17488;SDS011;8861;52.644;4.734;2023-04-03T01:15:54;3.60;;;2.73;;
17488;SDS011;8861;52.644;4.734;2023-04-03T01:18:22;4.93;;;3.00;;
17488;SDS011;8861;52.644;4.734;2023-04-03T01:21:04;3.43;;;3.07;;
17488;SDS011;8861;52.644;4.734;2023-04-03T01:23:56;5.70;;;3.03;;
17488;SDS011;8861;52.644;4.734;2023-04-03T01:26:29;4.20;;;2.77;;
17488;SDS011;8861;52.644;4.734;2023-04-03T01:28:58;5.40;;;3.17;;
17488;SDS011;8861;52.644;4.734;2023-04-03T01:31:28;5.57;;;3.20;;
17488;SDS011;8861;52.644;4.734;2023-04-03T01:34:06;4.03;;;3.00;;
17488;SDS011;8861;52.644;4.734;2023-04-03T01:36:33;4.87;;;3.17;;
17488;SDS011;8861;52.644;4.734;2023-04-03T01:39:00;3.43;;;2.83;;
17488;SDS011;8861;52.644;4.734;2023-04-03T01:41:27;4.47;;;3.07;;
17488;SDS011;8861;52.644;4.734;2023-04-03T01:43:55;4.27;;;2.83;;
17488;SDS011;8861;52.644;4.734;2023-04-03T01:46:22;3.13;;;2.83;;
17488;SDS011;8861;52.644;4.734;2023-04-03T01:48:50;5.07;;;3.10;;
17488;SDS011;8861;52.644;4.734;2023-04-03T01:51:17;4.67;;;2.70;;
17488;SDS011;8861;52.644;4.734;2023-04-03T01:53:44;4.90;;;2.80;;
17488;SDS011;8861;52.644;4.734;2023-04-03T01:56:11;4.03;;;2.90;;
17488;SDS011;8861;52.644;4.734;2023-04-03T01:58:38;5.40;;;3.13;;
17488;SDS011;8861;52.644;4.734;2023-04-03T02:01:05;4.13;;;2.97;;
17488;SDS011;8861;52.644;4.734;2023-04-03T02:03:33;5.43;;;2.80;;
17488;SDS011;8861;52.644;4.734;2023-04-03T02:06:02;4.33;;;2.83;;
17488;SDS011;8861;52.644;4.734;2023-04-03T02:08:29;5.50;;;3.30;;
17488;SDS011;8861;52.644;4.734;2023-04-03T02:10:56;5.90;;;3.67;;
17488;SDS011;8861;52.644;4.734;2023-04-03T02:13:23;3.70;;;3.23;;
17488;SDS011;8861;52.644;4.734;2023-04-03T02:15:50;5.63;;;3.33;;
17488;SDS011;8861;52.644;4.734;2023-04-03T02:18:17;4.30;;;3.23;;
17488;SDS011;8861;52.644;4.734;2023-04-03T02:20:44;5.40;;;3.47;;
17488;SDS011;8861;52.644;4.734;2023-04-03T02:23:13;4.70;;;3.67;;
17488;SDS011;8861;52.644;4.734;2023-04-03T02:25:40;6.40;;;3.60;;
17488;SDS011;8861;52.644;4.734;2023-04-03T02:28:07;4.30;;;3.20;;
17488;SDS011;8861;52.644;4.734;2023-04-03T02:30:34;5.17;;;3.50;;
17488;SDS011;8861;52.644;4.734;2023-04-03T02:33:01;4.57;;;3.10;;
17488;SDS011;8861;52.644;4.734;2023-04-03T02:35:28;4.87;;;3.43;;
17488;SDS011;8861;52.644;4.734;2023-04-03T02:37:55;6.20;;;3.63;;
17488;SDS011;8861;52.644;4.734;2023-04-03T02:40:24;5.40;;;3.47;;
17488;SDS011;8861;52.644;4.734;2023-04-03T02:42:51;4.77;;;3.03;;
17488;SDS011;8861;52.644;4.734;2023-04-03T02:45:18;5.37;;;3.50;;
17488;SDS011;8861;52.644;4.734;2023-04-03T02:47:45;6.00;;;3.10;;
17488;SDS011;8861;52.644;4.734;2023-04-03T02:50:12;6.70;;;3.40;;
17488;SDS011;8861;52.644;4.734;2023-04-03T02:52:39;5.10;;;3.30;;
17488;SDS011;8861;52.644;4.734;2023-04-03T02:55:06;5.57;;;3.70;;
17488;SDS011;8861;52.644;4.734;2023-04-03T02:57:35;5.20;;;3.27;;
17488;SDS011;8861;52.644;4.734;2023-04-03T03:00:02;6.47;;;3.80;;
17488;SDS011;8861;52.644;4.734;2023-04-03T03:02:30;5.37;;;3.40;;
17488;SDS011;8861;52.644;4.734;2023-04-03T03:04:57;7.23;;;3.23;;
17488;SDS011;8861;52.644;4.734;2023-04-03T03:07:24;5.67;;;3.40;;
17488;SDS011;8861;52.644;4.734;2023-04-03T03:09:51;6.50;;;3.17;;
17488;SDS011;8861;52.644;4.734;2023-04-03T03:12:18;4.40;;;3.40;;
17488;SDS011;8861;52.644;4.734;2023-04-03T03:14:48;3.83;;;2.90;;
17488;SDS011;8861;52.644;4.734;2023-04-03T03:17:15;6.10;;;3.37;;
17488;SDS011;8861;52.644;4.734;2023-04-03T03:19:43;4.50;;;3.33;;
17488;SDS011;8861;52.644;4.734;2023-04-03T03:22:10;4.97;;;3.10;;
17488;SDS011;8861;52.644;4.734;2023-04-03T03:24:37;4.57;;;3.10;;
17488;SDS011;8861;52.644;4.734;2023-04-03T03:27:04;5.37;;;3.40;;
17488;SDS011;8861;52.644;4.734;2023-04-03T03:29:31;5.47;;;3.43;;
17488;SDS011;8861;52.644;4.734;2023-04-03T03:32:00;7.10;;;3.33;;
17488;SDS011;8861;52.644;4.734;2023-04-03T03:34:27;5.93;;;3.50;;
17488;SDS011;8861;52.644;4.734;2023-04-03T03:36:54;6.10;;;3.17;;
17488;SDS011;8861;52.644;4.734;2023-04-03T03:39:21;5.80;;;3.70;;
17488;SDS011;8861;52.644;4.734;2023-04-03T03:41:48;6.17;;;3.47;;
17488;SDS011;8861;52.644;4.734;2023-04-03T03:44:15;4.93;;;3.50;;
17488;SDS011;8861;52.644;4.734;2023-04-03T03:46:42;5.63;;;3.60;;
17488;SDS011;8861;52.644;4.734;2023-04-03T03:49:11;6.00;;;3.57;;
17488;SDS011;8861;52.644;4.734;2023-04-03T03:51:38;5.60;;;3.37;;
17488;SDS011;8861;52.644;4.734;2023-04-03T03:54:05;5.80;;;3.97;;
17488;SDS011;8861;52.644;4.734;2023-04-03T03:56:33;7.03;;;3.80;;
17488;SDS011;8861;52.644;4.734;2023-04-03T03:59:00;7.77;;;3.87;;
17488;SDS011;8861;52.644;4.734;2023-04-03T04:01:27;8.00;;;3.93;;
17488;SDS011;8861;52.644;4.734;2023-04-03T04:03:54;4.77;;;3.63;;
17488;SDS011;8861;52.644;4.734;2023-04-03T04:06:23;5.73;;;4.07;;
17488;SDS011;8861;52.644;4.734;2023-04-03T04:08:50;5.53;;;3.33;;
17488;SDS011;8861;52.644;4.734;2023-04-03T04:11:17;5.73;;;3.60;;
17488;SDS011;8861;52.644;4.734;2023-04-03T04:13:45;5.40;;;3.47;;
17488;SDS011;8861;52.644;4.734;2023-04-03T04:16:11;5.97;;;3.50;;
17488;SDS011;8861;52.644;4.734;2023-04-03T04:18:38;4.73;;;3.20;;
17488;SDS011;8861;52.644;4.734;2023-04-03T04:21:05;6.60;;;3.40;;
17488;SDS011;8861;52.644;4.734;2023-04-03T04:23:34;5.33;;;3.20;;
17488;SDS011;8861;52.644;4.734;2023-04-03T04:26:01;5.43;;;3.30;;
17488;SDS011;8861;52.644;4.734;2023-04-03T04:28:28;5.47;;;3.70;;
17488;SDS011;8861;52.644;4.734;2023-04-03T04:30:55;3.63;;;3.33;;
17488;SDS011;8861;52.644;4.734;2023-04-03T04:33:22;6.27;;;3.10;;
17488;SDS011;8861;52.644;4.734;2023-04-03T04:35:49;5.37;;;3.00;;
17488;SDS011;8861;52.644;4.734;2023-04-03T04:38:16;4.53;;;3.20;;
17488;SDS011;8861;52.644;4.734;2023-04-03T04:40:45;4.77;;;2.77;;
17488;SDS011;8861;52.644;4.734;2023-04-03T04:43:13;5.67;;;3.07;;
17488;SDS011;8861;52.644;4.734;2023-04-03T04:45:40;5.50;;;3.20;;
17488;SDS011;8861;52.644;4.734;2023-04-03T04:48:07;5.53;;;3.20;;
17488;SDS011;8861;52.644;4.734;2023-04-03T04:50:35;6.27;;;3.43;;
17488;SDS011;8861;52.644;4.734;2023-04-03T04:53:02;4.77;;;3.27;;
17488;SDS011;8861;52.644;4.734;2023-04-03T04:55:29;4.87;;;3.27;;
17488;SDS011;8861;52.644;4.734;2023-04-03T04:57:57;6.57;;;3.90;;
17488;SDS011;8861;52.644;4.734;2023-04-03T05:00:25;6.70;;;3.53;;
17488;SDS011;8861;52.644;4.734;2023-04-03T05:02:52;5.43;;;3.47;;
17488;SDS011;8861;52.644;4.734;2023-04-03T05:05:19;5.30;;;3.13;;
17488;SDS011;8861;52.644;4.734;2023-04-03T05:07:46;5.67;;;3.70;;
17488;SDS011;8861;52.644;4.734;2023-04-03T05:10:13;5.17;;;3.40;;
17488;SDS011;8861;52.644;4.734;2023-04-03T05:12:40;5.60;;;3.00;;
17488;SDS011;8861;52.644;4.734;2023-04-03T05:15:08;5.03;;;3.40;;
17488;SDS011;8861;52.644;4.734;2023-04-03T05:17:36;5.27;;;3.63;;
17488;SDS011;8861;52.644;4.734;2023-04-03T05:20:03;5.33;;;3.50;;
17488;SDS011;8861;52.644;4.734;2023-04-03T05:22:31;7.50;;;3.47;;
17488;SDS011;8861;52.644;4.734;2023-04-03T05:24:58;8.30;;;3.70;;
17488;SDS011;8861;52.644;4.734;2023-04-03T05:27:26;5.13;;;3.20;;
17488;SDS011;8861;52.644;4.734;2023-04-03T05:29:54;6.20;;;3.57;;
17488;SDS011;8861;52.644;4.734;2023-04-03T05:32:22;5.77;;;3.43;;
17488;SDS011;8861;52.644;4.734;2023-04-03T05:34:50;6.13;;;3.77;;
17488;SDS011;8861;52.644;4.734;2023-04-03T05:37:17;6.60;;;3.57;;
17488;SDS011;8861;52.644;4.734;2023-04-03T05:39:44;5.87;;;3.87;;
17488;SDS011;8861;52.644;4.734;2023-04-03T05:42:11;7.63;;;4.47;;
17488;SDS011;8861;52.644;4.734;2023-04-03T05:44:38;6.07;;;3.67;;
17488;SDS011;8861;52.644;4.734;2023-04-03T05:47:06;7.73;;;3.70;;
17488;SDS011;8861;52.644;4.734;2023-04-03T05:49:34;7.37;;;3.90;;
17488;SDS011;8861;52.644;4.734;2023-04-03T05:52:05;5.63;;;3.73;;
17488;SDS011;8861;52.644;4.734;2023-04-03T05:54:32;7.57;;;3.93;;
17488;SDS011;8861;52.644;4.734;2023-04-03T05:56:59;7.27;;;3.83;;
17488;SDS011;8861;52.644;4.734;2023-04-03T05:59:26;5.33;;;3.50;;
17488;SDS011;8861;52.644;4.734;2023-04-03T06:01:53;5.10;;;3.57;;
17488;SDS011;8861;52.644;4.734;2023-04-03T06:04:21;7.37;;;3.90;;
17488;SDS011;8861;52.644;4.734;2023-04-03T06:06:50;6.73;;;3.47;;
17488;SDS011;8861;52.644;4.734;2023-04-03T06:09:19;5.83;;;3.43;;
17488;SDS011;8861;52.644;4.734;2023-04-03T06:11:48;5.40;;;3.80;;
17488;SDS011;8861;52.644;4.734;2023-04-03T06:14:15;4.77;;;3.17;;
17488;SDS011;8861;52.644;4.734;2023-04-03T06:16:42;7.23;;;3.57;;
17488;SDS011;8861;52.644;4.734;2023-04-03T06:19:09;8.30;;;3.67;;
17488;SDS011;8861;52.644;4.734;2023-04-03T06:21:37;6.10;;;3.60;;
17488;SDS011;8861;52.644;4.734;2023-04-03T06:24:06;5.60;;;3.80;;
17488;SDS011;8861;52.644;4.734;2023-04-03T06:26:33;8.93;;;3.93;;
17488;SDS011;8861;52.644;4.734;2023-04-03T06:29:00;5.83;;;3.77;;
17488;SDS011;8861;52.644;4.734;2023-04-03T06:31:28;5.93;;;3.57;;
17488;SDS011;8861;52.644;4.734;2023-04-03T06:33:55;6.20;;;3.57;;
17488;SDS011;8861;52.644;4.734;2023-04-03T06:36:22;5.17;;;3.53;;
17488;SDS011;8861;52.644;4.734;2023-04-03T06:38:49;7.20;;;3.57;;
17488;SDS011;8861;52.644;4.734;2023-04-03T06:41:18;6.53;;;3.80;;
17488;SDS011;8861;52.644;4.734;2023-04-03T06:43:45;5.90;;;3.57;;
17488;SDS011;8861;52.644;4.734;2023-04-03T06:46:14;6.23;;;3.73;;
17488;SDS011;8861;52.644;4.734;2023-04-03T06:48:42;7.07;;;4.00;;
17488;SDS011;8861;52.644;4.734;2023-04-03T06:51:13;6.03;;;3.80;;
17488;SDS011;8861;52.644;4.734;2023-04-03T06:53:44;8.30;;;3.93;;
17488;SDS011;8861;52.644;4.734;2023-04-03T06:56:12;8.57;;;4.23;;
17488;SDS011;8861;52.644;4.734;2023-04-03T06:58:41;8.80;;;3.83;;
17488;SDS011;8861;52.644;4.734;2023-04-03T07:01:08;7.20;;;4.10;;
17488;SDS011;8861;52.644;4.734;2023-04-03T07:03:37;9.20;;;4.03;;
17488;SDS011;8861;52.644;4.734;2023-04-03T07:06:04;6.43;;;4.07;;
17488;SDS011;8861;52.644;4.734;2023-04-03T07:08:33;8.13;;;4.13;;
17488;SDS011;8861;52.644;4.734;2023-04-03T07:11:00;8.07;;;4.47;;
17488;SDS011;8861;52.644;4.734;2023-04-03T07:13:28;8.23;;;3.93;;
17488;SDS011;8861;52.644;4.734;2023-04-03T07:15:57;7.97;;;4.00;;
17488;SDS011;8861;52.644;4.734;2023-04-03T07:18:24;7.33;;;4.37;;
17488;SDS011;8861;52.644;4.734;2023-04-03T07:20:51;8.80;;;4.20;;
17488;SDS011;8861;52.644;4.734;2023-04-03T07:23:18;8.10;;;4.27;;
17488;SDS011;8861;52.644;4.734;2023-04-03T07:25:46;6.77;;;4.43;;
17488;SDS011;8861;52.644;4.734;2023-04-03T07:28:14;8.13;;;3.97;;
17488;SDS011;8861;52.644;4.734;2023-04-03T07:30:42;6.23;;;3.77;;
17488;SDS011;8861;52.644;4.734;2023-04-03T07:33:11;7.30;;;3.73;;
17488;SDS011;8861;52.644;4.734;2023-04-03T07:35:39;5.97;;;3.80;;
17488;SDS011;8861;52.644;4.734;2023-04-03T07:38:07;7.20;;;4.00;;
17488;SDS011;8861;52.644;4.734;2023-04-03T07:40:34;7.27;;;4.37;;
17488;SDS011;8861;52.644;4.734;2023-04-03T07:43:02;7.80;;;4.03;;
17488;SDS011;8861;52.644;4.734;2023-04-03T07:45:29;5.37;;;3.57;;
17488;SDS011;8861;52.644;4.734;2023-04-03T07:47:56;8.07;;;3.93;;
17488;SDS011;8861;52.644;4.734;2023-04-03T07:50:25;7.17;;;3.77;;
17488;SDS011;8861;52.644;4.734;2023-04-03T07:52:52;8.20;;;3.87;;
17488;SDS011;8861;52.644;4.734;2023-04-03T07:55:19;6.90;;;3.27;;
17488;SDS011;8861;52.644;4.734;2023-04-03T07:57:46;8.70;;;4.10;;
17488;SDS011;8861;52.644;4.734;2023-04-03T08:00:14;7.40;;;4.17;;
17488;SDS011;8861;52.644;4.734;2023-04-03T08:02:42;7.47;;;3.60;;
17488;SDS011;8861;52.644;4.734;2023-04-03T08:05:15;7.13;;;3.83;;
17488;SDS011;8861;52.644;4.734;2023-04-03T08:07:43;7.63;;;4.23;;
17488;SDS011;8861;52.644;4.734;2023-04-03T08:10:11;7.00;;;3.97;;
17488;SDS011;8861;52.644;4.734;2023-04-03T08:12:39;8.83;;;4.10;;
17488;SDS011;8861;52.644;4.734;2023-04-03T08:15:06;8.27;;;4.17;;
17488;SDS011;8861;52.644;4.734;2023-04-03T08:17:34;9.37;;;4.13;;
17488;SDS011;8861;52.644;4.734;2023-04-03T08:20:02;6.80;;;3.87;;
17488;SDS011;8861;52.644;4.734;2023-04-03T08:22:29;6.70;;;3.83;;
17488;SDS011;8861;52.644;4.734;2023-04-03T08:24:58;7.97;;;4.07;;
17488;SDS011;8861;52.644;4.734;2023-04-03T08:27:26;8.43;;;4.17;;
17488;SDS011;8861;52.644;4.734;2023-04-03T08:29:53;7.90;;;4.00;;
17488;SDS011;8861;52.644;4.734;2023-04-03T08:32:20;6.17;;;3.40;;
17488;SDS011;8861;52.644;4.734;2023-04-03T08:34:48;5.90;;;3.37;;
17488;SDS011;8861;52.644;4.734;2023-04-03T08:37:15;6.47;;;3.47;;
17488;SDS011;8861;52.644;4.734;2023-04-03T08:39:42;6.37;;;3.50;;
17488;SDS011;8861;52.644;4.734;2023-04-03T08:42:14;6.97;;;3.30;;
17488;SDS011;8861;52.644;4.734;2023-04-03T08:44:46;7.17;;;3.50;;
17488;SDS011;8861;52.644;4.734;2023-04-03T08:47:20;7.97;;;3.43;;
17488;SDS011;8861;52.644;4.734;2023-04-03T08:49:51;3.93;;;2.70;;
17488;SDS011;8861;52.644;4.734;2023-04-03T08:52:23;5.90;;;3.33;;
17488;SDS011;8861;52.644;4.734;2023-04-03T08:54:57;9.57;;;3.60;;
17488;SDS011;8861;52.644;4.734;2023-04-03T08:57:30;5.80;;;3.10;;
17488;SDS011;8861;52.644;4.734;2023-04-03T09:00:00;6.83;;;3.10;;
17488;SDS011;8861;52.644;4.734;2023-04-03T09:02:33;5.67;;;3.00;;
17488;SDS011;8861;52.644;4.734;2023-04-03T09:05:09;6.47;;;3.50;;
17488;SDS011;8861;52.644;4.734;2023-04-03T09:07:39;7.07;;;3.47;;
17488;SDS011;8861;52.644;4.734;2023-04-03T09:10:10;6.20;;;3.20;;
17488;SDS011;8861;52.644;4.734;2023-04-03T09:12:53;9.37;;;3.30;;
17488;SDS011;8861;52.644;4.734;2023-04-03T09:15:26;5.63;;;3.33;;
17488;SDS011;8861;52.644;4.734;2023-04-03T09:17:57;5.63;;;3.20;;
17488;SDS011;8861;52.644;4.734;2023-04-03T09:20:31;5.30;;;2.70;;
17488;SDS011;8861;52.644;4.734;2023-04-03T09:23:18;5.00;;;3.07;;
17488;SDS011;8861;52.644;4.734;2023-04-03T09:25:51;4.13;;;2.30;;
17488;SDS011;8861;52.644;4.734;2023-04-03T09:28:24;5.67;;;2.33;;
17488;SDS011;8861;52.644;4.734;2023-04-03T09:30:51;5.17;;;1.93;;
17488;SDS011;8861;52.644;4.734;2023-04-03T09:33:19;5.80;;;2.37;;
17488;SDS011;8861;52.644;4.734;2023-04-03T09:35:47;5.07;;;2.40;;
17488;SDS011;8861;52.644;4.734;2023-04-03T09:38:18;3.00;;;2.03;;
17488;SDS011;8861;52.644;4.734;2023-04-03T09:40:47;3.00;;;1.83;;
17488;SDS011;8861;52.644;4.734;2023-04-03T09:43:24;3.63;;;2.27;;
17488;SDS011;8861;52.644;4.734;2023-04-03T09:45:53;3.37;;;1.93;;
17488;SDS011;8861;52.644;4.734;2023-04-03T09:48:22;4.67;;;2.33;;
17488;SDS011;8861;52.644;4.734;2023-04-03T09:50:53;4.30;;;1.90;;
17488;SDS011;8861;52.644;4.734;2023-04-03T09:53:28;2.47;;;1.90;;
17488;SDS011;8861;52.644;4.734;2023-04-03T09:55:57;2.63;;;1.87;;
17488;SDS011;8861;52.644;4.734;2023-04-03T09:58:30;4.93;;;2.00;;
17488;SDS011;8861;52.644;4.734;2023-04-03T10:01:05;2.80;;;1.97;;
17488;SDS011;8861;52.644;4.734;2023-04-03T10:03:48;2.70;;;2.10;;
17488;SDS011;8861;52.644;4.734;2023-04-03T10:06:36;3.00;;;2.07;;
17488;SDS011;8861;52.644;4.734;2023-04-03T10:09:12;2.83;;;2.03;;
17488;SDS011;8861;52.644;4.734;2023-04-03T10:11:56;3.37;;;2.17;;
17488;SDS011;8861;52.644;4.734;2023-04-03T10:14:27;3.30;;;1.80;;
17488;SDS011;8861;52.644;4.734;2023-04-03T10:16:57;3.50;;;1.90;;
17488;SDS011;8861;52.644;4.734;2023-04-03T10:19:33;4.17;;;2.07;;
17488;SDS011;8861;52.644;4.734;2023-04-03T10:22:03;2.70;;;2.00;;
17488;SDS011;8861;52.644;4.734;2023-04-03T10:24:36;3.60;;;1.97;;
17488;SDS011;8861;52.644;4.734;2023-04-03T10:27:12;4.50;;;2.33;;
17488;SDS011;8861;52.644;4.734;2023-04-03T10:29:48;3.07;;;2.10;;
17488;SDS011;8861;52.644;4.734;2023-04-03T10:32:34;4.53;;;2.20;;
17488;SDS011;8861;52.644;4.734;2023-04-03T10:35:18;3.57;;;2.10;;
17488;SDS011;8861;52.644;4.734;2023-04-03T10:37:59;3.53;;;2.13;;
17488;SDS011;8861;52.644;4.734;2023-04-03T10:40:31;4.23;;;2.40;;
17488;SDS011;8861;52.644;4.734;2023-04-03T10:43:06;4.80;;;2.07;;
17488;SDS011;8861;52.644;4.734;2023-04-03T10:45:46;3.23;;;2.13;;
17488;SDS011;8861;52.644;4.734;2023-04-03T10:48:23;3.03;;;1.90;;
17488;SDS011;8861;52.644;4.734;2023-04-03T10:50:58;2.97;;;2.10;;
17488;SDS011;8861;52.644;4.734;2023-04-03T10:53:34;3.50;;;2.30;;
17488;SDS011;8861;52.644;4.734;2023-04-03T10:56:10;2.93;;;1.70;;
17488;SDS011;8861;52.644;4.734;2023-04-03T10:58:43;3.80;;;2.03;;
17488;SDS011;8861;52.644;4.734;2023-04-03T11:01:13;3.93;;;2.10;;
17488;SDS011;8861;52.644;4.734;2023-04-03T11:03:43;3.07;;;1.90;;
17488;SDS011;8861;52.644;4.734;2023-04-03T11:06:13;2.90;;;1.90;;
17488;SDS011;8861;52.644;4.734;2023-04-03T11:08:44;3.10;;;1.83;;
17488;SDS011;8861;52.644;4.734;2023-04-03T11:11:20;3.78;;;2.20;;
17488;SDS011;8861;52.644;4.734;2023-04-03T11:13:53;3.07;;;1.90;;
17488;SDS011;8861;52.644;4.734;2023-04-03T11:16:26;2.80;;;1.83;;
17488;SDS011;8861;52.644;4.734;2023-04-03T11:18:56;5.60;;;2.33;;
17488;SDS011;8861;52.644;4.734;2023-04-03T11:21:27;2.73;;;1.90;;
17488;SDS011;8861;52.644;4.734;2023-04-03T11:23:59;3.23;;;2.00;;
17488;SDS011;8861;52.644;4.734;2023-04-03T11:26:35;3.53;;;1.80;;
17488;SDS011;8861;52.644;4.734;2023-04-03T11:29:07;3.70;;;1.80;;
17488;SDS011;8861;52.644;4.734;2023-04-03T11:31:41;4.23;;;2.23;;
17488;SDS011;8861;52.644;4.734;2023-04-03T11:34:24;3.20;;;1.87;;
17488;SDS011;8861;52.644;4.734;2023-04-03T11:36:59;2.43;;;1.80;;
17488;SDS011;8861;52.644;4.734;2023-04-03T11:39:28;3.20;;;1.93;;
17488;SDS011;8861;52.644;4.734;2023-04-03T11:42:12;3.77;;;2.07;;
17488;SDS011;8861;52.644;4.734;2023-04-03T11:44:41;2.87;;;1.80;;
17488;SDS011;8861;52.644;4.734;2023-04-03T11:47:10;6.80;;;2.57;;
17488;SDS011;8861;52.644;4.734;2023-04-03T11:49:51;8.73;;;2.50;;
17488;SDS011;8861;52.644;4.734;2023-04-03T11:58:21;2.67;;;1.90;;
17488;SDS011;8861;52.644;4.734;2023-04-03T12:00:56;4.33;;;1.90;;
17488;SDS011;8861;52.644;4.734;2023-04-03T12:12:41;2.60;;;1.60;;
17488;SDS011;8861;52.644;4.734;2023-04-03T12:15:21;2.57;;;1.73;;
17488;SDS011;8861;52.644;4.734;2023-04-03T12:17:52;5.83;;;1.63;;
17488;SDS011;8861;52.644;4.734;2023-04-03T12:23:26;2.83;;;1.60;;
17488;SDS011;8861;52.644;4.734;2023-04-03T12:25:59;3.53;;;1.60;;
17488;SDS011;8861;52.644;4.734;2023-04-03T12:28:29;2.73;;;1.70;;
17488;SDS011;8861;52.644;4.734;2023-04-03T12:31:04;2.83;;;1.60;;
17488;SDS011;8861;52.644;4.734;2023-04-03T12:33:38;2.07;;;1.30;;
17488;SDS011;8861;52.644;4.734;2023-04-03T12:36:25;4.33;;;1.63;;
17488;SDS011;8861;52.644;4.734;2023-04-03T12:42:12;2.23;;;1.40;;
17488;SDS011;8861;52.644;4.734;2023-04-03T12:44:54;2.53;;;1.30;;
17488;SDS011;8861;52.644;4.734;2023-04-03T12:47:29;2.87;;;1.77;;
17488;SDS011;8861;52.644;4.734;2023-04-03T12:50:02;2.50;;;1.70;;
17488;SDS011;8861;52.644;4.734;2023-04-03T12:52:36;2.50;;;1.50;;
17488;SDS011;8861;52.644;4.734;2023-04-03T12:55:11;4.03;;;1.60;;
17488;SDS011;8861;52.644;4.734;2023-04-03T12:57:41;5.00;;;1.60;;
17488;SDS011;8861;52.644;4.734;2023-04-03T13:03:04;2.47;;;1.60;;
17488;SDS011;8861;52.644;4.734;2023-04-03T13:05:33;2.03;;;1.60;;
17488;SDS011;8861;52.644;4.734;2023-04-03T13:08:03;3.63;;;1.87;;
17488;SDS011;8861;52.644;4.734;2023-04-03T13:10:43;3.13;;;2.00;;
17488;SDS011;8861;52.644;4.734;2023-04-03T13:13:15;3.40;;;1.90;;
17488;SDS011;8861;52.644;4.734;2023-04-03T13:15:43;2.80;;;1.73;;
17488;SDS011;8861;52.644;4.734;2023-04-03T13:18:24;2.90;;;1.93;;
17488;SDS011;8861;52.644;4.734;2023-04-03T13:20:53;4.47;;;2.10;;
17488;SDS011;8861;52.644;4.734;2023-04-03T13:23:27;4.13;;;1.80;;
17488;SDS011;8861;52.644;4.734;2023-04-03T13:25:55;3.87;;;1.97;;
17488;SDS011;8861;52.644;4.734;2023-04-03T13:28:26;4.17;;;2.00;;
17488;SDS011;8861;52.644;4.734;2023-04-03T13:30:54;3.77;;;2.07;;
17488;SDS011;8861;52.644;4.734;2023-04-03T13:33:31;2.03;;;1.50;;
17488;SDS011;8861;52.644;4.734;2023-04-03T13:36:03;2.73;;;1.47;;
17488;SDS011;8861;52.644;4.734;2023-04-03T13:38:34;2.90;;;1.70;;
17488;SDS011;8861;52.644;4.734;2023-04-03T13:41:02;2.50;;;1.80;;
17488;SDS011;8861;52.644;4.734;2023-04-03T13:43:33;4.00;;;1.70;;
17488;SDS011;8861;52.644;4.734;2023-04-03T13:46:03;3.40;;;1.60;;
17488;SDS011;8861;52.644;4.734;2023-04-03T13:48:48;3.37;;;1.70;;
17488;SDS011;8861;52.644;4.734;2023-04-03T13:51:18;3.47;;;1.73;;
17488;SDS011;8861;52.644;4.734;2023-04-03T13:53:51;2.73;;;1.40;;
17488;SDS011;8861;52.644;4.734;2023-04-03T13:56:22;2.57;;;1.73;;
17488;SDS011;8861;52.644;4.734;2023-04-03T13:58:57;2.40;;;1.97;;
17488;SDS011;8861;52.644;4.734;2023-04-03T14:01:33;3.73;;;2.00;;
17488;SDS011;8861;52.644;4.734;2023-04-03T14:04:11;4.33;;;1.67;;
17488;SDS011;8861;52.644;4.734;2023-04-03T14:06:41;5.20;;;1.80;;
17488;SDS011;8861;52.644;4.734;2023-04-03T14:09:10;3.37;;;1.90;;
17488;SDS011;8861;52.644;4.734;2023-04-03T14:11:38;2.83;;;1.60;;
17488;SDS011;8861;52.644;4.734;2023-04-03T14:14:09;3.07;;;1.90;;
17488;SDS011;8861;52.644;4.734;2023-04-03T14:16:40;2.30;;;1.57;;
17488;SDS011;8861;52.644;4.734;2023-04-03T14:19:14;2.77;;;1.53;;
17488;SDS011;8861;52.644;4.734;2023-04-03T14:21:44;3.33;;;1.80;;
17488;SDS011;8861;52.644;4.734;2023-04-03T14:24:13;2.57;;;1.60;;
17488;SDS011;8861;52.644;4.734;2023-04-03T14:26:41;2.40;;;1.53;;
17488;SDS011;8861;52.644;4.734;2023-04-03T14:29:09;2.87;;;1.47;;
17488;SDS011;8861;52.644;4.734;2023-04-03T14:31:37;3.17;;;1.67;;
17488;SDS011;8861;52.644;4.734;2023-04-03T14:34:05;3.57;;;1.63;;
17488;SDS011;8861;52.644;4.734;2023-04-03T14:36:32;3.77;;;1.90;;
17488;SDS011;8861;52.644;4.734;2023-04-03T14:38:59;3.13;;;1.97;;
17488;SDS011;8861;52.644;4.734;2023-04-03T14:41:28;2.43;;;1.70;;
17488;SDS011;8861;52.644;4.734;2023-04-03T14:43:55;2.97;;;1.50;;
17488;SDS011;8861;52.644;4.734;2023-04-03T14:46:24;2.80;;;1.40;;
17488;SDS011;8861;52.644;4.734;2023-04-03T14:48:54;2.13;;;1.27;;
17488;SDS011;8861;52.644;4.734;2023-04-03T14:51:22;2.97;;;1.40;;
17488;SDS011;8861;52.644;4.734;2023-04-03T14:53:49;4.33;;;1.53;;
17488;SDS011;8861;52.644;4.734;2023-04-03T14:56:17;2.80;;;1.40;;
17488;SDS011;8861;52.644;4.734;2023-04-03T14:58:48;1.87;;;1.20;;
17488;SDS011;8861;52.644;4.734;2023-04-03T15:01:17;1.87;;;1.30;;
17488;SDS011;8861;52.644;4.734;2023-04-03T15:03:44;1.30;;;1.20;;
17488;SDS011;8861;52.644;4.734;2023-04-03T15:06:11;2.47;;;1.50;;
17488;SDS011;8861;52.644;4.734;2023-04-03T15:08:40;3.00;;;1.63;;
17488;SDS011;8861;52.644;4.734;2023-04-03T15:11:08;2.33;;;1.50;;
17488;SDS011;8861;52.644;4.734;2023-04-03T15:13:36;1.93;;;1.40;;
17488;SDS011;8861;52.644;4.734;2023-04-03T15:16:05;2.20;;;1.40;;
17488;SDS011;8861;52.644;4.734;2023-04-03T15:18:38;2.07;;;1.50;;
17488;SDS011;8861;52.644;4.734;2023-04-03T15:21:06;2.97;;;1.50;;
17488;SDS011;8861;52.644;4.734;2023-04-03T15:23:33;2.17;;;1.30;;
17488;SDS011;8861;52.644;4.734;2023-04-03T15:26:00;3.30;;;1.63;;
17488;SDS011;8861;52.644;4.734;2023-04-03T15:28:28;2.23;;;1.50;;
17488;SDS011;8861;52.644;4.734;2023-04-03T15:30:56;3.10;;;1.40;;
17488;SDS011;8861;52.644;4.734;2023-04-03T15:33:25;2.20;;;1.60;;
17488;SDS011;8861;52.644;4.734;2023-04-03T15:35:52;2.13;;;1.67;;
17488;SDS011;8861;52.644;4.734;2023-04-03T15:38:19;3.53;;;1.60;;
17488;SDS011;8861;52.644;4.734;2023-04-03T15:40:46;2.33;;;1.60;;